createdAt,value
2023-07-24T00:00:21.310Z,976.23
2023-07-24T00:00:52.715Z,976.12
2023-07-24T00:01:23.885Z,976.12
2023-07-24T00:01:56.702Z,976.43
2023-07-24T00:02:27.948Z,976.43
2023-07-24T00:03:00.893Z,976.43
2023-07-24T00:06:12.768Z,976.33
2023-07-24T00:09:24.762Z,976.12
2023-07-24T00:12:37.095Z,975.82
2023-07-24T00:13:24.128Z,975.82
2023-07-24T00:13:55.882Z,976.02
2023-07-24T00:14:27.968Z,976.02
2023-07-24T00:14:59.972Z,975.82
2023-07-24T00:15:33.082Z,975.82
2023-07-24T00:16:04.992Z,976.12
2023-07-24T00:16:36.127Z,975.82
2023-07-24T00:17:08.911Z,975.82
2023-07-24T00:17:40.061Z,975.52
2023-07-24T00:18:12.808Z,975.52
2023-07-24T00:18:44.039Z,975.52
2023-07-24T00:19:18.853Z,975.52
2023-07-24T00:19:47.983Z,975.62
2023-07-24T00:20:21.263Z,975.62
2023-07-24T00:20:51.978Z,975.72
2023-07-24T00:21:08.068Z,975.72
2023-07-24T00:21:39.927Z,975.72
2023-07-24T00:22:11.960Z,975.72
2023-07-24T00:22:44.846Z,975.72
2023-07-24T00:23:16.146Z,975.72
2023-07-24T00:23:48.894Z,976.12
2023-07-24T00:24:19.985Z,976.12
2023-07-24T00:24:52.969Z,976.12
2023-07-24T00:25:24.193Z,976.12
2023-07-24T00:25:57.009Z,976.12
2023-07-24T00:26:28.418Z,976.12
2023-07-24T00:27:01.030Z,976.43
2023-07-24T00:27:31.934Z,976.43
2023-07-24T00:28:04.805Z,976.63
2023-07-24T00:28:36.103Z,976.43
2023-07-24T00:29:08.845Z,976.43
2023-07-24T00:29:40.029Z,976.43
2023-07-24T00:30:13.835Z,976.43
2023-07-24T00:30:44.107Z,976.63
2023-07-24T00:31:16.812Z,976.63
2023-07-24T00:31:48.027Z,976.63
2023-07-24T00:32:21.167Z,976.63
2023-07-24T00:32:52.093Z,976.63
2023-07-24T00:33:25.039Z,976.63
2023-07-24T00:33:56.120Z,976.53
2023-07-24T00:34:29.794Z,976.53
2023-07-24T00:34:59.963Z,976.53
2023-07-24T00:35:33.331Z,976.53
2023-07-24T00:36:03.934Z,976.33
2023-07-24T00:36:36.892Z,976.63
2023-07-24T00:37:08.027Z,976.63
2023-07-24T00:37:41.065Z,976.43
2023-07-24T00:38:12.031Z,976.43
2023-07-24T00:38:44.775Z,976.33
2023-07-24T00:39:16.036Z,976.33
2023-07-24T00:39:48.860Z,976.33
2023-07-24T00:40:20.262Z,976.33
2023-07-24T00:40:52.945Z,976.02
2023-07-24T00:41:24.092Z,976.02
2023-07-24T00:41:56.877Z,976.12
2023-07-24T00:42:28.028Z,976.12
2023-07-24T00:43:01.035Z,975.92
2023-07-24T00:43:31.919Z,975.92
2023-07-24T00:44:04.899Z,975.92
2023-07-24T00:44:36.030Z,975.82
2023-07-24T00:45:09.956Z,975.82
2023-07-24T00:45:40.062Z,975.72
2023-07-24T00:46:12.863Z,975.72
2023-07-24T00:46:44.171Z,975.72
2023-07-24T00:47:17.022Z,975.72
2023-07-24T00:47:47.989Z,975.52
2023-07-24T00:48:21.029Z,975.52
2023-07-24T00:48:52.169Z,975.72
2023-07-24T00:49:26.642Z,975.72
2023-07-24T00:49:56.033Z,975.62
2023-07-24T00:50:29.403Z,975.62
2023-07-24T00:51:00.001Z,975.62
2023-07-24T00:51:32.868Z,975.62
2023-07-24T00:52:04.045Z,975.41
2023-07-24T00:52:36.994Z,975.41
2023-07-24T00:53:07.997Z,975.41
2023-07-24T00:53:40.954Z,975.21
2023-07-24T00:54:12.258Z,975.21
2023-07-24T00:54:44.882Z,974.94
2023-07-24T00:55:16.352Z,974.94
2023-07-24T00:55:51.202Z,975.01
2023-07-24T00:56:19.956Z,975.01
2023-07-24T00:56:52.933Z,974.74
2023-07-24T00:57:24.152Z,974.74
2023-07-24T00:57:57.067Z,974.74
2023-07-24T00:58:27.970Z,974.74
2023-07-24T00:59:00.726Z,974.84
2023-07-24T00:59:32.069Z,974.84
2023-07-24T01:00:06.616Z,974.94
2023-07-24T01:00:36.112Z,974.74
2023-07-24T01:01:08.931Z,974.74
2023-07-24T01:01:40.142Z,974.74
2023-07-24T01:02:12.986Z,974.74
2023-07-24T01:02:44.075Z,974.74
2023-07-24T01:03:16.916Z,974.74
2023-07-24T01:03:48.001Z,974.74
2023-07-24T01:04:20.929Z,974.74
2023-07-24T01:04:52.084Z,974.43
2023-07-24T01:05:25.118Z,974.43
2023-07-24T01:05:56.063Z,974.74
2023-07-24T01:06:29.458Z,974.74
2023-07-24T01:07:00.124Z,974.74
2023-07-24T01:07:33.057Z,974.74
2023-07-24T01:08:04.031Z,974.43
2023-07-24T01:08:37.159Z,974.23
2023-07-24T01:09:07.919Z,974.23
2023-07-24T01:09:40.785Z,974.23
2023-07-24T01:10:12.336Z,974.23
2023-07-24T01:10:45.239Z,974.03
2023-07-24T01:11:16.064Z,974.03
2023-07-24T01:11:49.869Z,974.23
2023-07-24T01:12:20.067Z,974.23
2023-07-24T01:12:53.001Z,974.13
2023-07-24T01:13:23.993Z,974.13
2023-07-24T01:13:56.953Z,974.03
2023-07-24T01:14:28.140Z,974.03
2023-07-24T01:15:02.222Z,974.43
2023-07-24T01:15:32.140Z,974.43
2023-07-24T01:16:05.161Z,974.33
2023-07-24T01:16:36.036Z,974.23
2023-07-24T01:17:08.899Z,974.23
2023-07-24T01:17:40.231Z,974.43
2023-07-24T01:18:13.002Z,974.43
2023-07-24T01:18:44.011Z,974.43
2023-07-24T01:19:16.831Z,974.43
2023-07-24T01:19:48.124Z,974.33
2023-07-24T01:20:21.353Z,974.33
2023-07-24T01:20:52.061Z,974.63
2023-07-24T01:21:25.015Z,974.63
2023-07-24T01:21:55.923Z,975.01
2023-07-24T01:22:28.936Z,975.01
2023-07-24T01:22:59.986Z,974.84
2023-07-24T01:23:33.043Z,974.84
2023-07-24T01:24:03.918Z,974.74
2023-07-24T01:24:36.824Z,974.63
2023-07-24T01:25:08.194Z,974.63
2023-07-24T01:25:40.668Z,975.11
2023-07-24T01:26:11.867Z,975.11
2023-07-24T01:26:44.677Z,975.21
2023-07-24T01:27:16.105Z,975.21
2023-07-24T01:27:48.794Z,974.84
2023-07-24T01:28:20.125Z,974.84
2023-07-24T01:28:53.891Z,975.11
2023-07-24T01:29:23.812Z,975.11
2023-07-24T01:29:56.676Z,975.11
2023-07-24T01:30:29.047Z,975.11
2023-07-24T01:31:00.950Z,974.74
2023-07-24T01:31:31.789Z,974.74
2023-07-24T01:32:04.781Z,975.11
2023-07-24T01:32:36.035Z,974.74
2023-07-24T01:33:08.817Z,974.74
2023-07-24T01:33:39.791Z,974.23
2023-07-24T01:34:12.962Z,974.23
2023-07-24T01:34:44.080Z,974.53
2023-07-24T01:35:16.987Z,974.53
2023-07-24T01:35:47.904Z,974.33
2023-07-24T01:36:20.842Z,974.33
2023-07-24T01:36:51.830Z,974.13
2023-07-24T01:37:24.973Z,974.13
2023-07-24T01:37:55.967Z,974.33
2023-07-24T01:38:29.131Z,974.33
2023-07-24T01:38:59.874Z,974.23
2023-07-24T01:39:32.738Z,974.23
2023-07-24T01:40:04.211Z,974.23
2023-07-24T01:40:36.675Z,974.03
2023-07-24T01:41:07.875Z,974.03
2023-07-24T01:41:40.686Z,974.03
2023-07-24T01:42:11.842Z,974.03
2023-07-24T01:42:44.808Z,973.92
2023-07-24T01:43:15.962Z,973.92
2023-07-24T01:43:48.925Z,973.82
2023-07-24T01:44:19.827Z,973.82
2023-07-24T01:44:52.837Z,973.82
2023-07-24T01:45:25.008Z,973.82
2023-07-24T01:45:57.020Z,973.92
2023-07-24T01:46:28.405Z,973.92
2023-07-24T01:47:00.804Z,974.03
2023-07-24T01:47:31.876Z,974.03
2023-07-24T01:48:04.973Z,974.03
2023-07-24T01:48:35.951Z,974.03
2023-07-24T01:49:08.868Z,974.03
2023-07-24T01:49:39.858Z,974.13
2023-07-24T01:50:12.923Z,974.13
2023-07-24T01:50:43.945Z,974.13
2023-07-24T01:51:16.628Z,974.13
2023-07-24T01:51:47.930Z,973.92
2023-07-24T01:52:20.883Z,973.92
2023-07-24T01:52:51.996Z,973.92
2023-07-24T01:53:24.569Z,973.92
2023-07-24T01:53:55.835Z,974.03
2023-07-24T01:54:28.933Z,974.03
2023-07-24T01:54:59.837Z,974.03
2023-07-24T01:55:33.223Z,974.03
2023-07-24T01:56:04.023Z,974.03
2023-07-24T01:56:37.076Z,973.92
2023-07-24T01:57:07.904Z,973.92
2023-07-24T01:57:40.890Z,974.03
2023-07-24T01:58:12.033Z,974.03
2023-07-24T01:58:44.592Z,973.92
2023-07-24T01:59:15.912Z,973.92
2023-07-24T01:59:48.841Z,973.92
2023-07-24T02:00:20.831Z,973.92
2023-07-24T02:00:36.295Z,973.82
2023-07-24T02:01:08.035Z,973.82
2023-07-24T02:01:39.934Z,973.82
2023-07-24T02:02:12.771Z,973.82
2023-07-24T02:02:43.972Z,973.72
2023-07-24T02:03:16.812Z,973.72
2023-07-24T02:03:47.883Z,973.82
2023-07-24T02:04:20.974Z,973.82
2023-07-24T02:04:51.972Z,973.92
2023-07-24T02:05:24.991Z,973.92
2023-07-24T02:05:55.878Z,974.03
2023-07-24T02:06:29.798Z,974.03
2023-07-24T02:06:59.778Z,973.72
2023-07-24T02:07:32.855Z,973.72
2023-07-24T02:08:03.925Z,973.82
2023-07-24T02:08:36.848Z,973.92
2023-07-24T02:09:07.773Z,973.92
2023-07-24T02:09:40.626Z,973.92
2023-07-24T02:10:12.261Z,973.92
2023-07-24T02:10:45.498Z,973.92
2023-07-24T02:11:15.914Z,973.92
2023-07-24T02:11:48.769Z,973.62
2023-07-24T02:12:19.952Z,973.62
2023-07-24T02:12:52.861Z,973.92
2023-07-24T02:13:24.018Z,973.92
2023-07-24T02:13:56.753Z,973.82
2023-07-24T02:14:27.816Z,973.82
2023-07-24T02:15:02.375Z,973.62
2023-07-24T02:15:31.988Z,973.62
2023-07-24T02:16:04.864Z,973.72
2023-07-24T02:16:35.919Z,973.82
2023-07-24T02:17:08.836Z,973.82
2023-07-24T02:17:39.976Z,973.82
2023-07-24T02:18:12.853Z,973.82
2023-07-24T02:18:43.943Z,973.82
2023-07-24T02:19:16.752Z,973.82
2023-07-24T02:19:47.803Z,973.92
2023-07-24T02:20:21.070Z,973.92
2023-07-24T02:20:52.090Z,974.03
2023-07-24T02:21:25.777Z,974.03
2023-07-24T02:21:55.965Z,973.72
2023-07-24T02:22:31.944Z,973.72
2023-07-24T02:22:59.927Z,973.42
2023-07-24T02:23:32.516Z,973.42
2023-07-24T02:24:04.005Z,973.62
2023-07-24T02:24:37.020Z,973.82
2023-07-24T02:25:08.104Z,973.82
2023-07-24T02:25:40.844Z,973.82
2023-07-24T02:26:12.015Z,973.82
2023-07-24T02:26:44.930Z,973.82
2023-07-24T02:27:15.826Z,973.82
2023-07-24T02:27:49.143Z,973.82
2023-07-24T02:28:20.098Z,973.82
2023-07-24T02:28:53.195Z,973.92
2023-07-24T02:29:23.936Z,973.92
2023-07-24T02:29:56.516Z,973.82
2023-07-24T02:30:28.853Z,973.82
2023-07-24T02:31:01.056Z,973.92
2023-07-24T02:31:32.104Z,973.92
2023-07-24T02:32:04.935Z,974.03
2023-07-24T02:32:35.900Z,973.72
2023-07-24T02:33:08.897Z,973.72
2023-07-24T02:33:39.912Z,974.03
2023-07-24T02:34:13.920Z,974.03
2023-07-24T02:34:44.056Z,973.72
2023-07-24T02:35:17.025Z,973.72
2023-07-24T02:35:47.957Z,973.82
2023-07-24T02:36:20.747Z,973.82
2023-07-24T02:36:51.984Z,973.82
2023-07-24T02:37:25.015Z,973.82
2023-07-24T02:37:55.929Z,974.13
2023-07-24T02:38:28.733Z,974.13
2023-07-24T02:38:59.956Z,973.92
2023-07-24T02:39:32.781Z,973.92
2023-07-24T02:40:04.258Z,973.72
2023-07-24T02:40:36.808Z,973.72
2023-07-24T02:41:08.030Z,973.72
2023-07-24T02:41:40.547Z,973.92
2023-07-24T02:42:11.935Z,973.92
2023-07-24T02:42:44.894Z,973.92
2023-07-24T02:43:15.886Z,973.92
2023-07-24T02:43:48.970Z,973.82
2023-07-24T02:44:19.911Z,973.82
2023-07-24T02:44:52.667Z,974.03
2023-07-24T02:45:24.816Z,974.03
2023-07-24T02:45:57.210Z,973.82
2023-07-24T02:46:28.444Z,973.82
2023-07-24T02:47:00.932Z,973.92
2023-07-24T02:47:32.010Z,973.92
2023-07-24T02:48:05.009Z,973.72
2023-07-24T02:48:36.005Z,973.92
2023-07-24T02:49:08.660Z,973.92
2023-07-24T02:49:39.908Z,973.72
2023-07-24T02:50:13.043Z,973.72
2023-07-24T02:50:43.891Z,973.92
2023-07-24T02:51:16.722Z,973.92
2023-07-24T02:51:47.990Z,973.92
2023-07-24T02:52:20.824Z,973.92
2023-07-24T02:52:51.909Z,973.82
2023-07-24T02:53:24.952Z,973.82
2023-07-24T02:53:56.041Z,973.82
2023-07-24T02:54:28.626Z,973.82
2023-07-24T02:54:59.925Z,973.92
2023-07-24T02:55:33.108Z,973.92
2023-07-24T02:56:03.896Z,973.82
2023-07-24T02:56:36.829Z,973.82
2023-07-24T02:57:07.945Z,973.82
2023-07-24T02:57:40.846Z,973.92
2023-07-24T02:58:11.839Z,973.92
2023-07-24T02:58:44.961Z,973.82
2023-07-24T02:59:15.814Z,973.82
2023-07-24T02:59:48.876Z,973.82
2023-07-24T03:00:21.024Z,973.82
2023-07-24T03:00:53.001Z,974.03
2023-07-24T03:01:23.958Z,974.03
2023-07-24T03:01:56.893Z,973.82
2023-07-24T03:02:28.018Z,973.82
2023-07-24T03:03:01.060Z,974.03
2023-07-24T03:03:31.874Z,974.03
2023-07-24T03:04:04.670Z,973.92
2023-07-24T03:04:35.842Z,973.82
2023-07-24T03:05:09.113Z,973.82
2023-07-24T03:05:39.851Z,973.82
2023-07-24T03:06:12.811Z,973.82
2023-07-24T03:06:44.015Z,973.62
2023-07-24T03:07:16.787Z,973.62
2023-07-24T03:07:47.923Z,973.82
2023-07-24T03:08:20.874Z,973.82
2023-07-24T03:08:52.032Z,973.92
2023-07-24T03:09:24.624Z,973.92
2023-07-24T03:09:56.016Z,973.92
2023-07-24T03:10:29.103Z,973.92
2023-07-24T03:10:59.865Z,973.82
2023-07-24T03:11:32.799Z,973.82
2023-07-24T03:12:03.989Z,973.72
2023-07-24T03:12:36.931Z,973.92
2023-07-24T03:13:07.911Z,973.92
2023-07-24T03:13:40.919Z,973.72
2023-07-24T03:14:11.969Z,973.72
2023-07-24T03:14:44.717Z,973.82
2023-07-24T03:15:16.813Z,973.82
2023-07-24T03:15:49.143Z,973.82
2023-07-24T03:16:20.035Z,973.82
2023-07-24T03:16:53.608Z,973.62
2023-07-24T03:17:24.084Z,973.62
2023-07-24T03:17:57.142Z,973.82
2023-07-24T03:18:27.876Z,973.82
2023-07-24T03:19:00.932Z,973.72
2023-07-24T03:19:31.980Z,973.72
2023-07-24T03:20:05.279Z,973.62
2023-07-24T03:20:35.856Z,973.62
2023-07-24T03:21:08.886Z,973.62
2023-07-24T03:21:40.004Z,973.62
2023-07-24T03:22:12.678Z,973.62
2023-07-24T03:22:43.896Z,973.62
2023-07-24T03:23:17.008Z,973.62
2023-07-24T03:23:48.047Z,973.72
2023-07-24T03:24:20.681Z,973.72
2023-07-24T03:24:52.046Z,973.42
2023-07-24T03:25:25.257Z,973.42
2023-07-24T03:25:55.913Z,973.72
2023-07-24T03:26:29.213Z,973.72
2023-07-24T03:26:59.923Z,973.72
2023-07-24T03:27:33.044Z,973.72
2023-07-24T03:28:03.850Z,973.62
2023-07-24T03:28:36.790Z,973.72
2023-07-24T03:29:08.040Z,973.72
2023-07-24T03:29:40.543Z,973.82
2023-07-24T03:30:12.852Z,973.82
2023-07-24T03:30:44.965Z,973.62
2023-07-24T03:31:16.116Z,973.62
2023-07-24T03:31:48.663Z,973.62
2023-07-24T03:32:19.929Z,973.62
2023-07-24T03:32:53.088Z,973.62
2023-07-24T03:33:23.769Z,973.62
2023-07-24T03:33:56.681Z,973.72
2023-07-24T03:34:27.923Z,973.72
2023-07-24T03:35:01.341Z,973.82
2023-07-24T03:35:31.905Z,973.82
2023-07-24T03:36:04.762Z,973.62
2023-07-24T03:36:35.911Z,973.52
2023-07-24T03:37:08.932Z,973.52
2023-07-24T03:37:39.937Z,973.42
2023-07-24T03:38:12.996Z,973.42
2023-07-24T03:38:44.103Z,973.62
2023-07-24T03:39:16.607Z,973.62
2023-07-24T03:39:47.961Z,973.42
2023-07-24T03:40:21.027Z,973.42
2023-07-24T03:40:51.816Z,973.52
2023-07-24T03:41:08.092Z,973.52
2023-07-24T03:41:39.761Z,973.62
2023-07-24T03:42:11.869Z,973.62
2023-07-24T03:42:45.107Z,973.52
2023-07-24T03:43:15.923Z,973.52
2023-07-24T03:43:48.894Z,973.31
2023-07-24T03:44:19.987Z,973.31
2023-07-24T03:44:52.843Z,973.42
2023-07-24T03:45:24.778Z,973.42
2023-07-24T03:45:56.973Z,973.42
2023-07-24T03:46:28.584Z,973.42
2023-07-24T03:47:01.296Z,973.21
2023-07-24T03:47:32.203Z,973.21
2023-07-24T03:48:05.094Z,973.21
2023-07-24T03:48:36.207Z,973.11
2023-07-24T03:49:08.862Z,973.11
2023-07-24T03:49:40.207Z,973.42
2023-07-24T03:50:13.248Z,973.42
2023-07-24T03:50:44.126Z,973.31
2023-07-24T03:51:17.169Z,973.31
2023-07-24T03:51:48.163Z,973.21
2023-07-24T03:52:21.312Z,973.21
2023-07-24T03:52:52.122Z,973.42
2023-07-24T03:53:24.930Z,973.42
2023-07-24T03:53:56.231Z,973.52
2023-07-24T03:54:29.098Z,973.52
2023-07-24T03:55:00.124Z,973.01
2023-07-24T03:55:33.362Z,973.01
2023-07-24T03:56:04.265Z,973.11
2023-07-24T03:56:37.024Z,973.21
2023-07-24T03:57:08.257Z,973.21
2023-07-24T03:57:41.092Z,973.31
2023-07-24T03:58:12.035Z,973.31
2023-07-24T03:58:45.055Z,973.42
2023-07-24T03:59:16.241Z,973.42
2023-07-24T03:59:48.927Z,973.21
2023-07-24T04:00:21.122Z,973.21
2023-07-24T04:00:53.145Z,973.01
2023-07-24T04:01:24.205Z,973.01
2023-07-24T04:01:56.889Z,973.31
2023-07-24T04:02:28.210Z,973.31
2023-07-24T04:03:01.115Z,973.21
2023-07-24T04:03:32.299Z,973.21
2023-07-24T04:04:05.001Z,973.21
2023-07-24T04:04:36.146Z,973.31
2023-07-24T04:05:09.149Z,973.31
2023-07-24T04:05:39.998Z,973.01
2023-07-24T04:06:12.776Z,973.01
2023-07-24T04:06:44.324Z,973.11
2023-07-24T04:07:16.939Z,973.11
2023-07-24T04:07:48.118Z,973.01
2023-07-24T04:08:21.018Z,973.01
2023-07-24T04:08:52.324Z,973.11
2023-07-24T04:09:25.110Z,973.11
2023-07-24T04:09:56.248Z,973.11
2023-07-24T04:10:29.359Z,973.11
2023-07-24T04:11:00.213Z,973.11
2023-07-24T04:11:33.080Z,973.11
2023-07-24T04:12:04.404Z,973.01
2023-07-24T04:12:37.133Z,972.84
2023-07-24T04:13:08.320Z,972.84
2023-07-24T04:13:41.114Z,973.11
2023-07-24T04:14:12.368Z,973.11
2023-07-24T04:14:45.009Z,973.11
2023-07-24T04:15:17.279Z,973.11
2023-07-24T04:15:49.215Z,973.11
2023-07-24T04:16:20.209Z,973.11
2023-07-24T04:16:53.083Z,973.01
2023-07-24T04:17:24.357Z,973.01
2023-07-24T04:17:57.004Z,973.01
2023-07-24T04:18:28.369Z,973.01
2023-07-24T04:19:01.046Z,973.21
2023-07-24T04:19:32.323Z,973.21
2023-07-24T04:20:07.185Z,973.01
2023-07-24T04:20:36.377Z,972.91
2023-07-24T04:21:09.109Z,972.91
2023-07-24T04:21:40.116Z,972.91
2023-07-24T04:22:12.993Z,972.91
2023-07-24T04:22:44.148Z,972.84
2023-07-24T04:23:17.132Z,972.84
2023-07-24T04:23:48.110Z,972.74
2023-07-24T04:24:21.005Z,972.74
2023-07-24T04:24:52.447Z,972.74
2023-07-24T04:25:25.257Z,972.74
2023-07-24T04:25:56.319Z,972.84
2023-07-24T04:26:29.396Z,972.84
2023-07-24T04:27:00.241Z,972.64
2023-07-24T04:27:33.861Z,972.64
2023-07-24T04:28:04.293Z,972.84
2023-07-24T04:28:37.009Z,972.74
2023-07-24T04:29:08.156Z,972.74
2023-07-24T04:29:41.890Z,972.74
2023-07-24T04:30:13.327Z,972.74
2023-07-24T04:30:45.192Z,972.84
2023-07-24T04:31:16.139Z,972.84
2023-07-24T04:31:48.966Z,972.54
2023-07-24T04:32:20.237Z,972.54
2023-07-24T04:32:52.921Z,972.91
2023-07-24T04:33:24.114Z,972.91
2023-07-24T04:33:57.021Z,972.54
2023-07-24T04:34:28.297Z,972.54
2023-07-24T04:35:01.272Z,972.64
2023-07-24T04:35:32.151Z,972.64
2023-07-24T04:36:05.014Z,972.54
2023-07-24T04:36:36.126Z,972.64
2023-07-24T04:37:09.062Z,972.64
2023-07-24T04:37:40.177Z,972.43
2023-07-24T04:38:13.156Z,972.43
2023-07-24T04:38:44.101Z,972.74
2023-07-24T04:39:16.921Z,972.74
2023-07-24T04:39:48.200Z,972.64
2023-07-24T04:40:21.125Z,972.64
2023-07-24T04:40:52.341Z,972.54
2023-07-24T04:41:25.023Z,972.54
2023-07-24T04:41:56.189Z,972.74
2023-07-24T04:42:29.057Z,972.74
2023-07-24T04:43:00.178Z,972.54
2023-07-24T04:43:33.343Z,972.54
2023-07-24T04:44:04.182Z,972.84
2023-07-24T04:44:37.175Z,972.84
2023-07-24T04:45:09.299Z,972.84
2023-07-24T04:45:41.287Z,972.74
2023-07-24T04:46:12.213Z,972.74
2023-07-24T04:46:45.220Z,972.64
2023-07-24T04:47:16.296Z,972.64
2023-07-24T04:47:49.098Z,972.91
2023-07-24T04:48:20.148Z,972.91
2023-07-24T04:48:53.062Z,973.01
2023-07-24T04:49:24.094Z,973.01
2023-07-24T04:49:57.100Z,972.84
2023-07-24T04:50:28.463Z,972.84
2023-07-24T04:51:00.870Z,973.01
2023-07-24T04:51:34.576Z,973.01
2023-07-24T04:52:05.284Z,972.91
2023-07-24T04:52:36.329Z,973.11
2023-07-24T04:53:09.245Z,973.11
2023-07-24T04:53:40.205Z,972.91
2023-07-24T04:54:13.095Z,972.91
2023-07-24T04:54:44.364Z,973.11
2023-07-24T04:55:17.465Z,973.11
2023-07-24T04:55:48.203Z,973.01
2023-07-24T04:56:21.203Z,973.01
2023-07-24T04:56:52.099Z,973.11
2023-07-24T04:57:26.169Z,973.11
2023-07-24T04:57:56.258Z,973.01
2023-07-24T04:58:29.195Z,973.01
2023-07-24T04:59:00.076Z,972.91
2023-07-24T04:59:32.988Z,972.91
2023-07-24T05:00:05.733Z,973.11
2023-07-24T05:00:37.667Z,973.11
2023-07-24T05:01:08.174Z,973.11
2023-07-24T05:01:41.196Z,973.42
2023-07-24T05:02:12.361Z,973.42
2023-07-24T05:02:45.083Z,973.62
2023-07-24T05:03:16.330Z,973.62
2023-07-24T05:03:49.133Z,973.62
2023-07-24T05:04:20.188Z,973.62
2023-07-24T05:04:53.204Z,973.62
2023-07-24T05:05:24.472Z,973.62
2023-07-24T05:05:56.984Z,973.52
2023-07-24T05:06:28.572Z,973.52
2023-07-24T05:07:01.197Z,973.31
2023-07-24T05:07:32.342Z,973.31
2023-07-24T05:08:05.034Z,973.11
2023-07-24T05:08:36.163Z,973.01
2023-07-24T05:09:10.053Z,973.01
2023-07-24T05:09:40.064Z,973.11
2023-07-24T05:10:13.179Z,973.11
2023-07-24T05:10:44.254Z,973.21
2023-07-24T05:11:16.952Z,973.21
2023-07-24T05:11:48.102Z,973.31
2023-07-24T05:12:21.130Z,973.31
2023-07-24T05:12:52.469Z,973.31
2023-07-24T05:13:25.022Z,973.31
2023-07-24T05:13:56.309Z,973.01
2023-07-24T05:14:29.255Z,973.01
2023-07-24T05:15:01.891Z,973.31
2023-07-24T05:15:33.449Z,973.31
2023-07-24T05:16:04.378Z,973.01
2023-07-24T05:16:38.369Z,973.11
2023-07-24T05:17:08.285Z,973.11
2023-07-24T05:17:41.403Z,973.21
2023-07-24T05:18:12.438Z,973.21
2023-07-24T05:18:45.183Z,973.21
2023-07-24T05:19:16.269Z,973.21
2023-07-24T05:19:49.186Z,973.21
2023-07-24T05:20:20.903Z,973.21
2023-07-24T05:20:53.325Z,973.11
2023-07-24T05:21:24.246Z,973.11
2023-07-24T05:21:58.060Z,973.21
2023-07-24T05:22:28.040Z,973.21
2023-07-24T05:23:01.057Z,973.01
2023-07-24T05:23:32.260Z,973.01
2023-07-24T05:24:05.275Z,973.31
2023-07-24T05:24:36.186Z,973.31
2023-07-24T05:25:10.113Z,973.31
2023-07-24T05:25:40.166Z,973.21
2023-07-24T05:26:13.202Z,973.21
2023-07-24T05:26:44.133Z,973.21
2023-07-24T05:27:17.308Z,973.21
2023-07-24T05:27:48.200Z,973.31
2023-07-24T05:28:21.000Z,973.31
2023-07-24T05:28:52.214Z,973.31
2023-07-24T05:29:25.895Z,973.31
2023-07-24T05:29:56.149Z,973.21
2023-07-24T05:30:33.082Z,973.21
2023-07-24T05:31:00.280Z,973.21
2023-07-24T05:31:33.152Z,973.21
2023-07-24T05:32:04.082Z,973.01
2023-07-24T05:32:37.191Z,973.01
2023-07-24T05:33:08.312Z,973.01
2023-07-24T05:33:41.533Z,973.01
2023-07-24T05:34:12.545Z,973.01
2023-07-24T05:34:46.497Z,973.01
2023-07-24T05:35:16.633Z,973.01
2023-07-24T05:35:48.929Z,973.01
2023-07-24T05:36:20.277Z,973.01
2023-07-24T05:36:53.340Z,972.91
2023-07-24T05:37:24.121Z,972.91
2023-07-24T05:37:58.366Z,972.91
2023-07-24T05:38:28.595Z,972.91
2023-07-24T05:39:01.653Z,973.01
2023-07-24T05:39:32.190Z,973.01
2023-07-24T05:40:05.247Z,972.91
2023-07-24T05:40:36.577Z,972.84
2023-07-24T05:41:09.227Z,972.84
2023-07-24T05:41:41.074Z,973.01
2023-07-24T05:42:13.476Z,973.01
2023-07-24T05:42:44.495Z,972.84
2023-07-24T05:43:17.442Z,972.84
2023-07-24T05:43:48.599Z,972.84
2023-07-24T05:44:21.385Z,972.84
2023-07-24T05:44:52.461Z,972.84
2023-07-24T05:45:09.737Z,972.84
2023-07-24T05:45:40.590Z,972.84
2023-07-24T05:46:12.594Z,972.84
2023-07-24T05:46:44.683Z,972.91
2023-07-24T05:47:16.443Z,972.91
2023-07-24T05:47:49.369Z,973.01
2023-07-24T05:48:20.546Z,973.01
2023-07-24T05:48:53.426Z,972.91
2023-07-24T05:49:24.418Z,972.91
2023-07-24T05:49:57.394Z,972.91
2023-07-24T05:50:28.837Z,972.91
2023-07-24T05:51:01.267Z,972.74
2023-07-24T05:51:32.589Z,972.74
2023-07-24T05:52:05.659Z,972.74
2023-07-24T05:52:36.535Z,972.74
2023-07-24T05:53:09.341Z,972.74
2023-07-24T05:53:40.445Z,972.84
2023-07-24T05:54:13.376Z,972.84
2023-07-24T05:54:44.386Z,973.01
2023-07-24T05:55:17.424Z,973.01
2023-07-24T05:55:48.569Z,973.01
2023-07-24T05:56:21.280Z,973.01
2023-07-24T05:56:52.651Z,973.11
2023-07-24T05:57:25.549Z,973.11
2023-07-24T05:57:56.559Z,972.91
2023-07-24T05:58:29.252Z,972.91
2023-07-24T05:59:00.465Z,973.11
2023-07-24T05:59:33.610Z,973.11
2023-07-24T06:00:06.154Z,972.74
2023-07-24T06:00:37.565Z,973.21
2023-07-24T06:01:08.665Z,973.21
2023-07-24T06:01:41.558Z,972.91
2023-07-24T06:02:12.500Z,972.91
2023-07-24T06:02:45.529Z,973.11
2023-07-24T06:03:16.734Z,973.11
2023-07-24T06:03:50.159Z,972.91
2023-07-24T06:04:20.684Z,972.91
2023-07-24T06:04:53.564Z,972.91
2023-07-24T06:05:24.708Z,972.91
2023-07-24T06:05:57.315Z,973.01
2023-07-24T06:06:28.913Z,973.01
2023-07-24T06:07:01.644Z,972.74
2023-07-24T06:07:32.454Z,972.74
2023-07-24T06:08:05.437Z,973.01
2023-07-24T06:08:36.624Z,972.91
2023-07-24T06:09:10.221Z,972.91
2023-07-24T06:09:40.378Z,973.11
2023-07-24T06:10:13.661Z,973.11
2023-07-24T06:10:44.556Z,973.21
2023-07-24T06:11:17.219Z,973.21
2023-07-24T06:11:48.575Z,973.11
2023-07-24T06:12:21.529Z,973.11
2023-07-24T06:12:52.474Z,973.11
2023-07-24T06:13:25.226Z,973.11
2023-07-24T06:13:56.429Z,973.01
2023-07-24T06:14:29.464Z,973.01
2023-07-24T06:15:01.863Z,973.01
2023-07-24T06:15:34.470Z,973.01
2023-07-24T06:16:04.673Z,973.11
2023-07-24T06:16:37.641Z,973.21
2023-07-24T06:17:08.500Z,973.21
2023-07-24T06:17:41.539Z,973.21
2023-07-24T06:18:12.608Z,973.21
2023-07-24T06:18:45.379Z,973.11
2023-07-24T06:19:16.511Z,973.11
2023-07-24T06:19:49.460Z,973.21
2023-07-24T06:20:20.757Z,973.21
2023-07-24T06:20:53.307Z,973.01
2023-07-24T06:21:24.704Z,973.01
2023-07-24T06:21:57.257Z,973.01
2023-07-24T06:22:30.577Z,973.01
2023-07-24T06:23:02.497Z,972.91
2023-07-24T06:23:33.750Z,972.91
2023-07-24T06:24:05.610Z,972.84
2023-07-24T06:24:37.651Z,973.01
2023-07-24T06:25:10.713Z,973.01
2023-07-24T06:25:41.237Z,972.84
2023-07-24T06:26:13.422Z,972.84
2023-07-24T06:26:44.626Z,972.91
2023-07-24T06:27:17.621Z,972.91
2023-07-24T06:27:48.548Z,972.91
2023-07-24T06:28:21.797Z,972.91
2023-07-24T06:28:52.759Z,972.91
2023-07-24T06:29:25.341Z,972.91
2023-07-24T06:30:08.810Z,972.91
2023-07-24T06:30:30.795Z,972.91
2023-07-24T06:31:00.494Z,972.84
2023-07-24T06:31:33.371Z,972.84
2023-07-24T06:32:04.564Z,973.01
2023-07-24T06:32:45.632Z,973.11
2023-07-24T06:33:08.538Z,973.11
2023-07-24T06:33:40.565Z,972.84
2023-07-24T06:34:12.578Z,972.84
2023-07-24T06:34:44.494Z,972.91
2023-07-24T06:35:17.736Z,972.91
2023-07-24T06:35:48.575Z,972.91
2023-07-24T06:36:21.241Z,972.91
2023-07-24T06:36:52.668Z,972.84
2023-07-24T06:37:25.420Z,972.84
2023-07-24T06:37:56.800Z,972.74
2023-07-24T06:38:30.024Z,972.74
2023-07-24T06:39:01.565Z,972.91
2023-07-24T06:39:33.743Z,972.91
2023-07-24T06:40:05.291Z,972.64
2023-07-24T06:40:38.582Z,972.74
2023-07-24T06:41:09.714Z,972.74
2023-07-24T06:41:41.460Z,972.64
2023-07-24T06:42:12.558Z,972.64
2023-07-24T06:42:46.833Z,972.74
2023-07-24T06:43:16.994Z,972.74
2023-07-24T06:43:49.412Z,972.64
2023-07-24T06:44:20.670Z,972.64
2023-07-24T06:44:53.862Z,972.64
2023-07-24T06:45:25.819Z,972.64
2023-07-24T06:45:58.531Z,972.64
2023-07-24T06:46:28.730Z,972.64